Time;durP1;ratioP1;P1;durP2;ratioP2;P2;SDS_P1;SDS_P2;PMS_P1;PMS_P2;Temp;Humidity;BMP_temperature;BMP_pressure;BME280_temperature;BME280_humidity;BME280_pressure;Samples;Min_cycle;Max_cycle;Signal;HPM_P1;HPM_P2
2023/08/23 00:00:45;;;;;;;;;;;22.60;71.90;;;;;;5053357;28;1042;-66
2023/08/23 00:03:11;;;;;;;;;;;22.60;71.90;;;;;;5053694;28;861;-66
2023/08/23 00:05:36;;;;;;;;;;;22.60;71.90;;;;;;5053497;28;880;-67
2023/08/23 00:08:02;;;;;;;;;;;22.60;71.90;;;;;;5053050;28;1905;-67
2023/08/23 00:10:27;;;;;;;;;;;22.60;71.90;;;;;;5053349;28;839;-67
2023/08/23 00:12:56;;;;;;;;;;;22.60;71.90;;;;;;5052788;28;907;-66
2023/08/23 00:15:21;;;;;;;;;;;22.60;71.90;;;;;;5052861;28;870;-67
2023/08/23 00:17:47;;;;;;;;;;;22.60;72.00;;;;;;5052186;28;800;-66
2023/08/23 00:20:13;;;;;;;;;;;22.60;72.00;;;;;;5052196;28;1156;-66
2023/08/23 00:22:38;;;;;;;;;;;22.60;72.00;;;;;;5052705;28;922;-66
2023/08/23 00:25:04;;;;;;;;;;;22.60;72.00;;;;;;5053361;28;889;-66
2023/08/23 00:27:29;;;;;;;;;;;22.60;72.00;;;;;;5053271;28;1217;-66
2023/08/23 00:29:54;;;;;;;;;;;22.60;72.00;;;;;;5052720;28;1975;-66
2023/08/23 00:32:20;;;;;;;;;;;22.60;72.00;;;;;;5053455;28;990;-66
2023/08/23 00:34:45;;;;;;;;;;;22.60;72.00;;;;;;5053415;28;812;-66
2023/08/23 00:37:11;;;;;;;;;;;22.60;72.00;;;;;;5053331;28;936;-66
2023/08/23 00:39:36;;;;;;;;;;;22.60;72.00;;;;;;5052703;28;1286;-66
2023/08/23 00:42:02;;;;;;;;;;;22.60;72.00;;;;;;5053055;28;882;-66
2023/08/23 00:44:27;;;;;;;;;;;22.60;72.00;;;;;;5053253;28;970;-66
2023/08/23 00:46:53;;;;;;;;;;;22.60;72.00;;;;;;5052883;28;888;-66
2023/08/23 00:49:18;;;;;;;;;;;22.60;72.00;;;;;;5050432;28;1973;-66
2023/08/23 00:51:44;;;;;;;;;;;22.60;72.10;;;;;;5051351;28;840;-67
2023/08/23 00:54:09;;;;;;;;;;;22.60;72.00;;;;;;5045654;28;825;-67
2023/08/23 00:56:36;;;;;;;;;;;22.60;72.10;;;;;;5050943;28;902;-67
2023/08/23 00:59:01;;;;;;;;;;;22.60;72.10;;;;;;5032710;28;1280;-67
2023/08/23 01:01:26;;;;;;;;;;;22.60;72.10;;;;;;5050225;28;828;-67
2023/08/23 01:03:54;;;;;;;;;;;22.60;72.10;;;;;;5062777;28;1278;-67
2023/08/23 01:06:27;;;;;;;;;;;22.60;72.10;;;;;;5049743;28;891;-67
2023/08/23 01:08:55;;;;;;;;;;;22.60;72.10;;;;;;5042937;28;1906;-66
2023/08/23 01:11:27;;;;;;;;;;;22.60;72.20;;;;;;5050536;28;820;-67
2023/08/23 01:13:52;;;;;;;;;;;22.60;72.10;;;;;;5043988;28;856;-67
2023/08/23 01:16:18;;;;;;;;;;;22.60;72.10;;;;;;5050693;28;970;-67
2023/08/23 01:18:43;;;;;;;;;;;22.60;72.20;;;;;;5043507;28;1325;-66
2023/08/23 01:21:09;;;;;;;;;;;22.60;72.20;;;;;;5041735;28;849;-67
2023/08/23 01:23:34;;;;;;;;;;;22.60;72.10;;;;;;5050879;28;874;-67
2023/08/23 01:26:00;;;;;;;;;;;22.60;72.10;;;;;;5050434;28;1655;-67
2023/08/23 01:28:26;;;;;;;;;;;22.60;72.20;;;;;;5047641;28;1909;-68
2023/08/23 01:30:51;;;;;;;;;;;22.60;72.20;;;;;;5050927;28;832;-67
2023/08/23 01:33:17;;;;;;;;;;;22.60;72.20;;;;;;5051566;28;864;-67
2023/08/23 01:35:50;;;;;;;;;;;22.60;72.20;;;;;;5052193;28;811;-66
2023/08/23 01:38:15;;;;;;;;;;;22.60;72.20;;;;;;5051711;28;1364;-66
2023/08/23 01:40:40;;;;;;;;;;;22.60;72.20;;;;;;5047487;28;827;-67
2023/08/23 01:43:06;;;;;;;;;;;22.60;72.20;;;;;;5045391;28;899;-67
2023/08/23 01:45:31;;;;;;;;;;;22.60;72.20;;;;;;5040737;28;799;-67
2023/08/23 01:47:57;;;;;;;;;;;22.60;72.20;;;;;;5051242;28;1291;-67
2023/08/23 01:50:22;;;;;;;;;;;22.60;72.30;;;;;;5039003;28;1957;-67
2023/08/23 01:52:48;;;;;;;;;;;22.60;72.20;;;;;;5052017;28;875;-66
2023/08/23 01:55:17;;;;;;;;;;;22.60;72.20;;;;;;5051963;28;922;-66
2023/08/23 01:57:43;;;;;;;;;;;22.60;72.30;;;;;;5051584;28;897;-67
2023/08/23 02:00:09;;;;;;;;;;;22.60;72.20;;;;;;5050814;28;1188;-67
2023/08/23 02:02:35;;;;;;;;;;;22.60;72.30;;;;;;5051005;28;882;-66
2023/08/23 02:05:00;;;;;;;;;;;22.60;72.30;;;;;;5050838;28;887;-66
2023/08/23 02:07:25;;;;;;;;;;;22.60;72.20;;;;;;5050486;28;1057;-66
2023/08/23 02:09:51;;;;;;;;;;;22.60;72.20;;;;;;5050100;28;1973;-66
2023/08/23 02:12:16;;;;;;;;;;;22.50;72.20;;;;;;5051942;28;855;-66
2023/08/23 02:14:42;;;;;;;;;;;22.60;72.30;;;;;;5056034;28;884;-66
2023/08/23 02:17:07;;;;;;;;;;;22.60;72.30;;;;;;5057138;28;1073;-66
2023/08/23 02:19:33;;;;;;;;;;;22.60;72.30;;;;;;5056876;28;1332;-66
2023/08/23 02:21:58;;;;;;;;;;;22.60;72.30;;;;;;5057054;28;934;-67
2023/08/23 02:24:24;;;;;;;;;;;22.60;72.30;;;;;;5056484;28;1077;-66
2023/08/23 02:26:49;;;;;;;;;;;22.60;72.30;;;;;;5056729;28;1002;-66
2023/08/23 02:29:14;;;;;;;;;;;22.60;72.30;;;;;;5056081;28;1909;-66
2023/08/23 02:31:40;;;;;;;;;;;22.60;72.30;;;;;;5058049;28;895;-67
2023/08/23 02:34:05;;;;;;;;;;;22.60;72.30;;;;;;5058294;28;943;-67
2023/08/23 02:36:31;;;;;;;;;;;22.60;72.30;;;;;;5057938;28;804;-66
2023/08/23 02:38:56;;;;;;;;;;;22.60;72.40;;;;;;5057771;28;1274;-66
2023/08/23 02:41:22;;;;;;;;;;;22.60;72.40;;;;;;5058218;28;888;-66
2023/08/23 02:43:50;;;;;;;;;;;22.60;72.30;;;;;;5057678;28;839;-66
2023/08/23 02:46:16;;;;;;;;;;;22.60;72.30;;;;;;5057120;28;823;-67
2023/08/23 02:48:41;;;;;;;;;;;22.60;72.30;;;;;;5056426;28;1971;-66
2023/08/23 02:51:07;;;;;;;;;;;22.60;72.40;;;;;;5056780;28;828;-66
2023/08/23 02:53:32;;;;;;;;;;;22.60;72.40;;;;;;5056770;28;1257;-66
2023/08/23 02:55:58;;;;;;;;;;;22.60;72.40;;;;;;5057021;28;811;-67
2023/08/23 02:58:23;;;;;;;;;;;22.60;72.40;;;;;;5055923;28;1342;-66
2023/08/23 03:00:49;;;;;;;;;;;22.60;72.40;;;;;;5056756;28;803;-66
2023/08/23 03:03:14;;;;;;;;;;;22.60;72.40;;;;;;5056998;28;800;-66
2023/08/23 03:05:39;;;;;;;;;;;22.60;72.40;;;;;;5056757;28;1018;-66
2023/08/23 03:08:05;;;;;;;;;;;22.60;72.40;;;;;;5056384;28;2000;-66
2023/08/23 03:10:30;;;;;;;;;;;22.60;72.40;;;;;;5056896;28;875;-67
2023/08/23 03:12:56;;;;;;;;;;;22.60;72.40;;;;;;5054831;28;881;-66
2023/08/23 03:15:21;;;;;;;;;;;22.60;72.40;;;;;;5058112;28;891;-67
2023/08/23 03:17:47;;;;;;;;;;;22.60;72.40;;;;;;5056647;28;998;-66
2023/08/23 03:20:12;;;;;;;;;;;22.60;72.40;;;;;;5055867;28;1395;-66
2023/08/23 03:22:38;;;;;;;;;;;22.60;72.40;;;;;;5056673;28;1021;-66
2023/08/23 03:25:03;;;;;;;;;;;22.50;72.40;;;;;;5052944;28;813;-66
2023/08/23 03:27:32;;;;;;;;;;;22.60;72.50;;;;;;5053176;28;1451;-66
2023/08/23 03:29:57;;;;;;;;;;;22.60;72.40;;;;;;5052605;28;1906;-66
2023/08/23 03:32:23;;;;;;;;;;;22.60;72.50;;;;;;5052744;28;1226;-66
2023/08/23 03:34:48;;;;;;;;;;;22.60;72.50;;;;;;5053553;28;867;-66
2023/08/23 03:37:14;;;;;;;;;;;22.60;72.50;;;;;;5053035;28;957;-66
2023/08/23 03:39:39;;;;;;;;;;;22.60;72.50;;;;;;5052317;28;1365;-66
2023/08/23 03:42:05;;;;;;;;;;;22.60;72.50;;;;;;5053278;28;930;-66
2023/08/23 03:44:30;;;;;;;;;;;22.60;72.50;;;;;;5053480;28;951;-66
2023/08/23 03:46:56;;;;;;;;;;;22.60;72.50;;;;;;5052887;28;1315;-66
2023/08/23 03:49:22;;;;;;;;;;;22.60;72.50;;;;;;5052374;28;1905;-67
2023/08/23 03:51:47;;;;;;;;;;;22.60;72.50;;;;;;5052979;28;846;-66
2023/08/23 03:54:13;;;;;;;;;;;22.60;72.50;;;;;;5053329;28;886;-66
2023/08/23 03:56:38;;;;;;;;;;;22.60;72.50;;;;;;5052632;28;1077;-66
2023/08/23 03:59:04;;;;;;;;;;;22.60;72.50;;;;;;5051751;28;1350;-66
2023/08/23 04:01:29;;;;;;;;;;;22.60;72.50;;;;;;5052506;28;887;-66
2023/08/23 04:03:54;;;;;;;;;;;22.60;72.60;;;;;;5052839;28;927;-66
2023/08/23 04:06:20;;;;;;;;;;;22.60;72.50;;;;;;5052948;28;862;-66
2023/08/23 04:08:45;;;;;;;;;;;22.60;72.50;;;;;;5051897;28;1981;-66
2023/08/23 04:11:11;;;;;;;;;;;22.60;72.60;;;;;;5052424;28;868;-66
2023/08/23 04:13:37;;;;;;;;;;;22.50;72.50;;;;;;5052137;28;876;-66
2023/08/23 04:16:03;;;;;;;;;;;22.60;72.50;;;;;;5052359;28;852;-66
2023/08/23 04:18:28;;;;;;;;;;;22.60;72.50;;;;;;5051607;28;1376;-66
2023/08/23 04:20:57;;;;;;;;;;;22.60;72.60;;;;;;5052504;28;935;-66
2023/08/23 04:23:22;;;;;;;;;;;22.60;72.60;;;;;;5052414;28;968;-68
2023/08/23 04:25:48;;;;;;;;;;;22.60;72.50;;;;;;5052324;28;923;-66
2023/08/23 04:28:13;;;;;;;;;;;22.60;72.60;;;;;;5051393;28;1971;-67
2023/08/23 04:30:42;;;;;;;;;;;22.60;72.60;;;;;;5052206;28;808;-67
2023/08/23 04:33:07;;;;;;;;;;;22.60;72.60;;;;;;5051636;28;825;-67
2023/08/23 04:35:33;;;;;;;;;;;22.60;72.60;;;;;;5044177;28;796;-67
2023/08/23 04:37:58;;;;;;;;;;;22.60;72.60;;;;;;5051481;28;1286;-67
2023/08/23 04:40:24;;;;;;;;;;;22.60;72.50;;;;;;5051976;28;846;-67
2023/08/23 04:42:49;;;;;;;;;;;22.60;72.50;;;;;;5052316;28;1080;-67
2023/08/23 04:45:15;;;;;;;;;;;22.60;72.60;;;;;;5052089;28;883;-68
2023/08/23 04:47:40;;;;;;;;;;;22.60;72.60;;;;;;5051089;28;910;-67
2023/08/23 04:50:06;;;;;;;;;;;22.60;73.40;;;;;;5050454;28;1906;-67
2023/08/23 04:52:31;;;;;;;;;;;22.60;72.60;;;;;;5051217;28;881;-68
2023/08/23 04:54:57;;;;;;;;;;;22.50;72.60;;;;;;5040129;28;873;-67
2023/08/23 04:57:22;;;;;;;;;;;22.60;72.60;;;;;;5050762;28;875;-67
2023/08/23 04:59:48;;;;;;;;;;;22.60;72.60;;;;;;5051018;28;1259;-67
2023/08/23 05:02:13;;;;;;;;;;;22.60;72.60;;;;;;5052345;28;887;-67
2023/08/23 05:04:39;;;;;;;;;;;22.60;72.70;;;;;;5042602;28;982;-67
2023/08/23 05:07:04;;;;;;;;;;;22.50;72.60;;;;;;5051322;28;871;-67
2023/08/23 05:09:30;;;;;;;;;;;22.60;72.70;;;;;;5050116;28;1934;-67
2023/08/23 05:11:56;;;;;;;;;;;22.60;72.70;;;;;;5050910;28;870;-67
2023/08/23 05:14:21;;;;;;;;;;;22.60;72.70;;;;;;5050586;28;986;-67
2023/08/23 05:16:47;;;;;;;;;;;22.60;72.70;;;;;;5050413;28;826;-67
2023/08/23 05:19:12;;;;;;;;;;;22.50;72.60;;;;;;5049848;28;1274;-69
2023/08/23 05:21:38;;;;;;;;;;;22.50;72.40;;;;;;5050324;28;946;-69
2023/08/23 05:24:04;;;;;;;;;;;22.60;71.00;;;;;;5049126;28;1115;-69
2023/08/23 05:26:29;;;;;;;;;;;22.50;69.60;;;;;;5050929;28;880;-69
2023/08/23 05:28:55;;;;;;;;;;;22.50;70.00;;;;;;5049411;28;1969;-69
2023/08/23 05:31:20;;;;;;;;;;;22.50;70.10;;;;;;5039884;28;2048;-69
2023/08/23 05:33:46;;;;;;;;;;;22.50;70.20;;;;;;5048917;28;1498;-70
2023/08/23 05:36:11;;;;;;;;;;;22.50;70.00;;;;;;5048934;28;1491;-68
2023/08/23 05:38:37;;;;;;;;;;;22.50;69.90;;;;;;5048865;28;1366;-69
2023/08/23 05:41:02;;;;;;;;;;;22.50;69.80;;;;;;5048938;28;902;-69
2023/08/23 05:43:28;;;;;;;;;;;22.50;69.80;;;;;;5049715;28;925;-68
2023/08/23 05:45:56;;;;;;;;;;;22.50;69.80;;;;;;5049093;28;868;-69
2023/08/23 05:48:22;;;;;;;;;;;22.50;69.90;;;;;;5048580;28;1913;-68
2023/08/23 05:50:48;;;;;;;;;;;22.50;70.70;;;;;;5049112;28;871;-67
2023/08/23 05:53:18;;;;;;;;;;;22.50;69.80;;;;;;5049137;28;851;-68
2023/08/23 05:55:50;;;;;;;;;;;22.50;69.80;;;;;;5049671;28;800;-68
2023/08/23 05:58:16;;;;;;;;;;;22.50;69.90;;;;;;5042211;28;1259;-69
2023/08/23 06:00:42;;;;;;;;;;;22.50;69.70;;;;;;5041576;28;856;-68
2023/08/23 06:03:08;;;;;;;;;;;22.50;69.70;;;;;;5049114;28;951;-68
2023/08/23 06:05:33;;;;;;;;;;;22.50;69.80;;;;;;5049265;28;883;-69
2023/08/23 06:07:59;;;;;;;;;;;22.50;69.70;;;;;;5047338;28;1369;-67
2023/08/23 06:10:24;;;;;;;;;;;22.50;69.70;;;;;;5048747;28;1917;-68
2023/08/23 06:12:50;;;;;;;;;;;22.50;69.60;;;;;;5049106;28;951;-68
2023/08/23 06:15:15;;;;;;;;;;;22.50;69.70;;;;;;5048752;28;895;-68
2023/08/23 06:17:41;;;;;;;;;;;22.50;69.70;;;;;;5049197;28;1321;-68
2023/08/23 06:20:07;;;;;;;;;;;22.50;69.80;;;;;;5048075;28;1402;-69
2023/08/23 06:22:32;;;;;;;;;;;22.50;69.70;;;;;;5048698;28;876;-69
2023/08/23 06:24:58;;;;;;;;;;;22.50;69.60;;;;;;5049182;28;879;-68
2023/08/23 06:27:23;;;;;;;;;;;22.50;69.70;;;;;;5049277;28;1242;-69
2023/08/23 06:29:49;;;;;;;;;;;22.50;69.70;;;;;;5048132;28;1933;-69
2023/08/23 06:32:14;;;;;;;;;;;22.50;69.70;;;;;;5049640;28;944;-70
2023/08/23 06:34:40;;;;;;;;;;;22.50;69.50;;;;;;5046318;28;939;-68
2023/08/23 06:37:05;;;;;;;;;;;22.50;69.60;;;;;;5049473;28;1057;-70
2023/08/23 06:39:31;;;;;;;;;;;22.50;69.60;;;;;;5048574;28;1218;-69
2023/08/23 06:41:56;;;;;;;;;;;22.50;69.60;;;;;;5049862;28;816;-69
2023/08/23 06:44:21;;;;;;;;;;;22.50;69.60;;;;;;5049883;28;884;-70
2023/08/23 06:46:47;;;;;;;;;;;22.50;69.60;;;;;;5050429;28;1006;-67
2023/08/23 06:49:12;;;;;;;;;;;22.50;69.70;;;;;;5049419;28;1963;-68
2023/08/23 06:51:38;;;;;;;;;;;22.50;69.80;;;;;;5049512;28;906;-68
2023/08/23 06:54:04;;;;;;;;;;;22.50;69.70;;;;;;5043542;28;879;-68
2023/08/23 06:56:29;;;;;;;;;;;22.50;69.80;;;;;;5049752;28;845;-68
2023/08/23 06:58:55;;;;;;;;;;;22.50;69.70;;;;;;5048107;28;1251;-67
2023/08/23 07:01:21;;;;;;;;;;;22.50;70.50;;;;;;5051731;28;848;-67
2023/08/23 07:03:46;;;;;;;;;;;22.50;69.90;;;;;;5053367;28;808;-67
2023/08/23 07:06:13;;;;;;;;;;;22.50;69.90;;;;;;5053499;28;820;-68
2023/08/23 07:08:38;;;;;;;;;;;22.50;70.00;;;;;;5042160;28;1913;-67
2023/08/23 07:11:04;;;;;;;;;;;22.50;69.80;;;;;;5053039;28;1333;-67
2023/08/23 07:13:29;;;;;;;;;;;22.50;69.80;;;;;;5049835;28;1252;-68
2023/08/23 07:15:55;;;;;;;;;;;22.50;69.80;;;;;;5052898;28;973;-68
2023/08/23 07:18:20;;;;;;;;;;;22.50;69.90;;;;;;5055720;28;1810;-67
2023/08/23 07:20:46;;;;;;;;;;;22.50;69.90;;;;;;5052876;28;901;-67
2023/08/23 07:23:11;;;;;;;;;;;22.50;69.90;;;;;;5052645;28;943;-68
2023/08/23 07:25:37;;;;;;;;;;;22.50;69.90;;;;;;5052728;28;887;-68
2023/08/23 07:28:02;;;;;;;;;;;22.50;70.00;;;;;;5051715;28;1376;-68
2023/08/23 07:30:28;;;;;;;;;;;22.50;70.00;;;;;;5051795;28;1958;-69
2023/08/23 07:32:53;;;;;;;;;;;22.50;70.00;;;;;;5051342;28;2145;-68
2023/08/23 07:35:19;;;;;;;;;;;22.50;70.10;;;;;;5052741;28;1337;-68
2023/08/23 07:37:44;;;;;;;;;;;22.50;70.10;;;;;;5052050;28;1434;-67
2023/08/23 07:40:10;;;;;;;;;;;22.50;70.10;;;;;;5052232;28;1260;-68
2023/08/23 07:42:35;;;;;;;;;;;22.50;70.00;;;;;;5052607;28;944;-66
2023/08/23 07:45:01;;;;;;;;;;;22.50;70.00;;;;;;5052334;28;1452;-68
2023/08/23 07:47:26;;;;;;;;;;;22.60;70.00;;;;;;5052479;28;823;-68
2023/08/23 07:49:52;;;;;;;;;;;22.60;70.00;;;;;;5052605;28;1894;-68
2023/08/23 07:52:17;;;;;;;;;;;22.60;69.90;;;;;;5052956;28;1034;-69
2023/08/23 07:54:43;;;;;;;;;;;22.60;69.90;;;;;;5049885;28;896;-68
2023/08/23 07:57:09;;;;;;;;;;;22.60;69.90;;;;;;5052632;28;1028;-68
2023/08/23 07:59:34;;;;;;;;;;;22.60;69.90;;;;;;5051076;28;1251;-68
2023/08/23 08:02:01;;;;;;;;;;;22.60;69.80;;;;;;5053032;28;1189;-68
2023/08/23 08:04:29;;;;;;;;;;;22.60;69.50;;;;;;5052769;28;880;-68
2023/08/23 08:06:55;;;;;;;;;;;22.60;69.70;;;;;;5052423;28;840;-68
2023/08/23 08:09:21;;;;;;;;;;;22.60;69.80;;;;;;5042089;28;1918;-68
2023/08/23 08:11:46;;;;;;;;;;;22.60;69.70;;;;;;5051776;28;898;-66
2023/08/23 08:14:12;;;;;;;;;;;22.70;69.90;;;;;;5052229;28;918;-68
2023/08/23 08:16:37;;;;;;;;;;;22.70;69.90;;;;;;5046681;28;1034;-66
2023/08/23 08:19:03;;;;;;;;;;;22.70;70.00;;;;;;5051155;28;1346;-68
2023/08/23 08:21:28;;;;;;;;;;;22.70;70.00;;;;;;5051792;28;899;-68
2023/08/23 08:23:54;;;;;;;;;;;22.70;69.90;;;;;;5052299;28;840;-70
2023/08/23 08:26:19;;;;;;;;;;;22.70;70.00;;;;;;5039815;28;1642;-70
2023/08/23 08:28:45;;;;;;;;;;;22.70;70.10;;;;;;5050272;28;1905;-71
2023/08/23 08:31:11;;;;;;;;;;;22.70;70.20;;;;;;5051558;28;880;-71
2023/08/23 08:33:37;;;;;;;;;;;22.70;70.20;;;;;;5046433;28;886;-68
2023/08/23 08:36:02;;;;;;;;;;;22.70;70.20;;;;;;5045809;28;863;-70
2023/08/23 08:38:28;;;;;;;;;;;22.70;70.30;;;;;;5050024;28;1354;-71
2023/08/23 08:40:53;;;;;;;;;;;22.70;70.30;;;;;;5050347;28;1065;-73
2023/08/23 08:43:19;;;;;;;;;;;22.70;70.30;;;;;;5043826;28;870;-71
2023/08/23 08:45:45;;;;;;;;;;;22.70;70.20;;;;;;5043016;28;927;-68
2023/08/23 08:48:10;;;;;;;;;;;22.70;70.00;;;;;;5049948;28;1358;-68
2023/08/23 08:50:36;;;;;;;;;;;22.80;70.00;;;;;;5049961;28;1926;-68
2023/08/23 08:53:01;;;;;;;;;;;22.70;70.10;;;;;;5046937;28;868;-68
2023/08/23 08:55:27;;;;;;;;;;;22.80;70.00;;;;;;5051180;28;902;-68
2023/08/23 08:57:53;;;;;;;;;;;22.80;69.90;;;;;;5044515;28;918;-68
2023/08/23 09:00:23;;;;;;;;;;;22.80;69.60;;;;;;5043588;28;1126;-68
2023/08/23 09:02:49;;;;;;;;;;;22.80;69.20;;;;;;5045435;28;1030;-68
2023/08/23 09:05:15;;;;;;;;;;;22.80;69.30;;;;;;5044456;28;1034;-68
2023/08/23 09:07:41;;;;;;;;;;;22.80;69.40;;;;;;5046002;28;1189;-67
2023/08/23 09:10:06;;;;;;;;;;;22.80;69.40;;;;;;5040409;28;1906;-68
2023/08/23 09:12:32;;;;;;;;;;;22.80;70.20;;;;;;5050044;28;1070;-68
2023/08/23 09:15:03;;;;;;;;;;;22.80;69.10;;;;;;5050063;28;843;-68
2023/08/23 09:17:33;;;;;;;;;;;22.80;69.30;;;;;;5050765;28;860;-68
2023/08/23 09:19:58;;;;;;;;;;;22.80;69.50;;;;;;5049741;28;1220;-69
2023/08/23 09:22:23;;;;;;;;;;;22.80;69.40;;;;;;5049828;28;768;-68
2023/08/23 09:24:49;;;;;;;;;;;22.80;69.60;;;;;;5050433;28;1153;-68
2023/08/23 09:27:15;;;;;;;;;;;22.80;69.60;;;;;;5050287;28;1242;-68
2023/08/23 09:29:41;;;;;;;;;;;22.80;69.40;;;;;;5049680;28;1926;-68
2023/08/23 09:32:06;;;;;;;;;;;22.80;69.50;;;;;;5050441;28;803;-68
2023/08/23 09:34:32;;;;;;;;;;;22.80;69.40;;;;;;5064415;28;1087;-68
2023/08/23 09:37:06;;;;;;;;;;;22.80;69.10;;;;;;5050290;28;974;-68
2023/08/23 09:39:32;;;;;;;;;;;22.80;69.10;;;;;;5049388;28;1355;-68
2023/08/23 09:42:03;;;;;;;;;;;22.80;69.40;;;;;;5049801;28;2442;-69
2023/08/23 09:44:46;;;;;;;;;;;22.80;69.40;;;;;;5043792;28;1311;-69
2023/08/23 09:47:15;;;;;;;;;;;22.80;69.60;;;;;;5044503;28;1333;-68
2023/08/23 09:49:44;;;;;;;;;;;22.80;69.40;;;;;;5042782;28;1957;-69
2023/08/23 09:52:11;;;;;;;;;;;22.80;69.50;;;;;;5050024;28;877;-67
2023/08/23 09:54:51;;;;;;;;;;;22.80;69.30;;;;;;5049270;28;900;-68
2023/08/23 09:57:17;;;;;;;;;;;22.80;68.90;;;;;;5050361;28;1036;-69
2023/08/23 09:59:43;;;;;;;;;;;22.80;68.80;;;;;;5043158;28;1205;-69
2023/08/23 10:02:09;;;;;;;;;;;22.80;69.00;;;;;;5049926;28;852;-68
2023/08/23 10:04:35;;;;;;;;;;;22.80;68.60;;;;;;5049163;28;851;-67
2023/08/23 10:07:01;;;;;;;;;;;22.80;68.30;;;;;;5045860;28;1397;-69
2023/08/23 10:09:26;;;;;;;;;;;22.90;68.30;;;;;;5043211;28;1972;-68
2023/08/23 10:11:52;;;;;;;;;;;22.80;67.90;;;;;;5041647;28;867;-69
2023/08/23 10:14:17;;;;;;;;;;;22.90;68.10;;;;;;5049842;28;918;-69
2023/08/23 10:16:43;;;;;;;;;;;22.80;68.00;;;;;;5044231;28;820;-69
2023/08/23 10:19:08;;;;;;;;;;;22.90;68.30;;;;;;5043859;28;1343;-69
2023/08/23 10:21:34;;;;;;;;;;;22.80;68.40;;;;;;5050873;28;1057;-70
2023/08/23 10:24:03;;;;;;;;;;;22.80;67.20;;;;;;5049915;28;864;-68
2023/08/23 10:26:29;;;;;;;;;;;22.90;67.60;;;;;;5043714;28;2075;-68
2023/08/23 10:28:54;;;;;;;;;;;22.90;68.20;;;;;;5040887;28;1910;-68
2023/08/23 10:31:26;;;;;;;;;;;22.90;68.30;;;;;;5049735;28;1440;-68
2023/08/23 10:33:58;;;;;;;;;;;22.80;68.00;;;;;;5050768;28;1026;-69
2023/08/23 10:36:24;;;;;;;;;;;22.90;67.60;;;;;;5043992;28;950;-69
2023/08/23 10:38:49;;;;;;;;;;;22.90;67.70;;;;;;5066299;28;1346;-67
2023/08/23 10:41:16;;;;;;;;;;;22.90;66.90;;;;;;5044804;28;1951;-69
2023/08/23 10:43:42;;;;;;;;;;;22.80;67.70;;;;;;5035272;28;1404;-68
2023/08/23 10:46:08;;;;;;;;;;;22.80;67.70;;;;;;5047420;28;866;-70
2023/08/23 10:48:33;;;;;;;;;;;22.90;67.60;;;;;;5052579;28;1903;-70
2023/08/23 10:50:59;;;;;;;;;;;22.90;67.30;;;;;;5051870;28;1405;-68
2023/08/23 10:53:25;;;;;;;;;;;22.90;67.20;;;;;;5047821;28;903;-68
2023/08/23 10:55:50;;;;;;;;;;;22.90;67.00;;;;;;5046285;28;828;-67
2023/08/23 10:58:16;;;;;;;;;;;22.90;66.50;;;;;;5052226;28;1332;-69
2023/08/23 11:00:42;;;;;;;;;;;23.00;66.60;;;;;;5050694;28;883;-69
2023/08/23 11:03:08;;;;;;;;;;;23.00;66.50;;;;;;5045017;28;798;-67
2023/08/23 11:05:34;;;;;;;;;;;23.00;66.10;;;;;;5043895;28;845;-68
2023/08/23 11:07:59;;;;;;;;;;;23.00;65.60;;;;;;5052482;28;1284;-68
2023/08/23 11:10:25;;;;;;;;;;;23.00;65.80;;;;;;5053333;28;1979;-67
2023/08/23 11:12:51;;;;;;;;;;;23.00;66.70;;;;;;5052888;28;823;-68
2023/08/23 11:15:16;;;;;;;;;;;23.00;66.60;;;;;;5065912;28;1278;-68
2023/08/23 11:17:42;;;;;;;;;;;23.00;66.40;;;;;;5052755;28;1029;-68
2023/08/23 11:20:08;;;;;;;;;;;23.00;66.40;;;;;;5052266;28;1383;-67
2023/08/23 11:22:33;;;;;;;;;;;23.00;67.00;;;;;;5050357;28;876;-68
2023/08/23 11:24:59;;;;;;;;;;;23.00;66.60;;;;;;5052780;28;916;-67
2023/08/23 11:27:24;;;;;;;;;;;23.00;66.70;;;;;;5052558;28;1502;-68
2023/08/23 11:29:50;;;;;;;;;;;23.00;66.70;;;;;;5051758;28;1910;-67
2023/08/23 11:32:15;;;;;;;;;;;23.00;67.00;;;;;;5041169;28;884;-67
2023/08/23 11:34:41;;;;;;;;;;;23.00;68.10;;;;;;5055581;28;940;-68
2023/08/23 11:37:07;;;;;;;;;;;23.00;67.10;;;;;;5052392;28;1173;-68
2023/08/23 11:39:33;;;;;;;;;;;23.00;66.60;;;;;;5051653;28;1368;-68
2023/08/23 11:41:58;;;;;;;;;;;23.00;66.50;;;;;;5052526;28;913;-68
2023/08/23 11:44:24;;;;;;;;;;;23.00;66.90;;;;;;5052525;28;865;-68
2023/08/23 11:46:49;;;;;;;;;;;23.00;67.50;;;;;;5029163;28;1466;-68
2023/08/23 11:49:16;;;;;;;;;;;23.00;67.30;;;;;;5050962;28;2116;-68
2023/08/23 11:51:46;;;;;;;;;;;23.00;66.60;;;;;;5051618;28;1365;-69
2023/08/23 11:54:11;;;;;;;;;;;23.00;66.20;;;;;;5051782;28;1223;-68
2023/08/23 11:56:41;;;;;;;;;;;23.00;66.00;;;;;;5026839;28;2234;-68
2023/08/23 11:59:06;;;;;;;;;;;23.00;65.80;;;;;;5049946;28;1260;-68
2023/08/23 12:01:34;;;;;;;;;;;23.00;65.60;;;;;;5041935;28;829;-69
2023/08/23 12:03:59;;;;;;;;;;;23.00;65.30;;;;;;5050690;28;905;-69
2023/08/23 12:06:25;;;;;;;;;;;23.00;65.50;;;;;;5052575;28;800;-68
2023/08/23 12:08:50;;;;;;;;;;;23.00;65.30;;;;;;5051041;28;1898;-68
2023/08/23 12:11:16;;;;;;;;;;;23.00;66.10;;;;;;5052042;28;1173;-66
2023/08/23 12:13:41;;;;;;;;;;;23.00;65.90;;;;;;5048661;28;879;-67
2023/08/23 12:16:07;;;;;;;;;;;23.00;65.60;;;;;;5042550;28;866;-68
2023/08/23 12:18:33;;;;;;;;;;;23.00;65.40;;;;;;5051152;28;1347;-68
2023/08/23 12:20:58;;;;;;;;;;;23.00;65.50;;;;;;5052219;28;870;-67
2023/08/23 12:23:24;;;;;;;;;;;23.00;65.60;;;;;;5051651;28;855;-67
2023/08/23 12:25:49;;;;;;;;;;;23.00;65.40;;;;;;5051932;28;859;-68
2023/08/23 12:28:16;;;;;;;;;;;23.00;65.30;;;;;;5050792;28;1307;-68
2023/08/23 12:30:41;;;;;;;;;;;23.00;65.30;;;;;;5051329;28;1904;-68
2023/08/23 12:33:07;;;;;;;;;;;23.00;65.60;;;;;;5047672;28;873;-68
2023/08/23 12:35:32;;;;;;;;;;;23.00;64.90;;;;;;5051594;28;821;-68
2023/08/23 12:37:57;;;;;;;;;;;23.00;65.10;;;;;;5050527;28;1767;-68
2023/08/23 12:40:23;;;;;;;;;;;23.00;65.10;;;;;;5051379;28;990;-68
2023/08/23 12:42:48;;;;;;;;;;;23.10;64.90;;;;;;5051133;28;804;-68
2023/08/23 12:45:14;;;;;;;;;;;23.00;64.70;;;;;;5042477;28;832;-67
2023/08/23 12:47:39;;;;;;;;;;;23.10;64.70;;;;;;5051306;28;872;-68
2023/08/23 12:50:05;;;;;;;;;;;23.10;64.70;;;;;;5050439;28;1985;-69
2023/08/23 12:52:31;;;;;;;;;;;23.10;64.70;;;;;;5050985;28;868;-68
2023/08/23 12:54:56;;;;;;;;;;;23.10;65.80;;;;;;5051261;28;939;-68
2023/08/23 12:57:21;;;;;;;;;;;23.10;66.30;;;;;;5050805;28;994;-68
2023/08/23 12:59:47;;;;;;;;;;;23.00;65.80;;;;;;5049921;28;1336;-67
2023/08/23 13:02:12;;;;;;;;;;;23.00;65.90;;;;;;5051033;28;934;-68
2023/08/23 13:04:39;;;;;;;;;;;23.00;65.30;;;;;;5042987;28;1050;-68
2023/08/23 13:07:05;;;;;;;;;;;23.10;64.50;;;;;;5051045;28;884;-68
2023/08/23 13:09:30;;;;;;;;;;;23.00;64.20;;;;;;5045433;28;1980;-68
2023/08/23 13:11:56;;;;;;;;;;;23.00;64.00;;;;;;5050354;28;841;-67
2023/08/23 13:14:21;;;;;;;;;;;23.00;64.10;;;;;;5050464;28;885;-67
2023/08/23 13:16:47;;;;;;;;;;;23.00;65.20;;;;;;5051050;28;872;-68
2023/08/23 13:19:12;;;;;;;;;;;23.10;64.20;;;;;;5049973;28;1359;-68
2023/08/23 13:21:38;;;;;;;;;;;23.00;64.10;;;;;;5050784;28;837;-67
2023/08/23 13:24:03;;;;;;;;;;;23.00;63.80;;;;;;5050390;28;856;-68
2023/08/23 13:26:29;;;;;;;;;;;23.10;63.90;;;;;;5050631;28;786;-69
2023/08/23 13:28:54;;;;;;;;;;;23.10;62.50;;;;;;5056020;28;1898;-68
2023/08/23 13:31:21;;;;;;;;;;;23.10;62.00;;;;;;5050050;28;852;-68
2023/08/23 13:33:48;;;;;;;;;;;23.10;61.70;;;;;;5045589;28;872;-67
2023/08/23 13:36:14;;;;;;;;;;;23.10;61.90;;;;;;5049493;28;907;-68
2023/08/23 13:38:40;;;;;;;;;;;23.10;61.40;;;;;;5048227;28;1267;-68
2023/08/23 13:41:05;;;;;;;;;;;23.10;61.60;;;;;;5050295;28;829;-68
2023/08/23 13:43:32;;;;;;;;;;;23.20;61.60;;;;;;5050239;28;843;-68
2023/08/23 13:45:57;;;;;;;;;;;23.20;61.90;;;;;;5050155;28;852;-68
2023/08/23 13:48:23;;;;;;;;;;;23.20;62.10;;;;;;5049675;28;1254;-67
2023/08/23 13:50:48;;;;;;;;;;;23.10;62.30;;;;;;5048781;28;2061;-68
2023/08/23 13:53:14;;;;;;;;;;;23.20;61.70;;;;;;5050196;28;2056;-67
2023/08/23 13:55:39;;;;;;;;;;;23.20;61.40;;;;;;5050032;28;1378;-67
2023/08/23 13:58:05;;;;;;;;;;;23.20;61.40;;;;;;5048404;28;1365;-68
2023/08/23 14:00:30;;;;;;;;;;;23.20;61.40;;;;;;5048977;28;1987;-68
2023/08/23 14:02:56;;;;;;;;;;;23.20;60.70;;;;;;5049823;28;1258;-68
2023/08/23 14:05:21;;;;;;;;;;;23.20;61.00;;;;;;5049796;28;1467;-68
2023/08/23 14:07:47;;;;;;;;;;;23.20;61.00;;;;;;5049487;28;1399;-68
2023/08/23 14:10:13;;;;;;;;;;;23.20;61.40;;;;;;5049241;28;1902;-67
2023/08/23 14:12:38;;;;;;;;;;;23.20;60.50;;;;;;5049921;28;1050;-68
2023/08/23 14:15:04;;;;;;;;;;;23.20;60.50;;;;;;5050084;28;805;-67
2023/08/23 14:17:29;;;;;;;;;;;23.20;60.80;;;;;;5049285;28;844;-67
2023/08/23 14:19:55;;;;;;;;;;;23.20;60.70;;;;;;5048915;28;1347;-68
2023/08/23 14:22:20;;;;;;;;;;;23.20;60.80;;;;;;5049850;28;927;-67
2023/08/23 14:24:46;;;;;;;;;;;23.20;60.30;;;;;;5049587;28;1510;-66
2023/08/23 14:27:11;;;;;;;;;;;23.20;60.30;;;;;;5049378;28;1277;-68